createdAt,value
2018-08-03T00:00:10.463Z,26.93
2018-08-03T00:02:39.642Z,26.90
2018-08-03T00:05:08.735Z,26.92
2018-08-03T00:07:37.840Z,26.89
2018-08-03T00:10:07.828Z,26.89
2018-08-03T00:12:37.127Z,26.88
2018-08-03T00:15:06.903Z,26.94
2018-08-03T00:17:36.165Z,26.92
2018-08-03T00:20:06.275Z,26.92
2018-08-03T00:22:35.653Z,26.92
2018-08-03T00:25:05.951Z,26.94
2018-08-03T00:27:35.006Z,26.94
2018-08-03T00:30:05.171Z,26.91
2018-08-03T00:32:34.277Z,26.89
2018-08-03T00:35:03.375Z,26.89
2018-08-03T00:37:32.442Z,26.89
2018-08-03T00:40:01.497Z,26.90
2018-08-03T00:42:30.551Z,26.83
2018-08-03T00:44:59.619Z,26.88
2018-08-03T00:47:28.679Z,26.88
2018-08-03T00:49:57.724Z,26.91
2018-08-03T00:52:27.453Z,26.92
2018-08-03T00:54:56.507Z,26.94
2018-08-03T00:57:25.555Z,26.90
2018-08-03T00:59:54.607Z,26.87
2018-08-03T01:02:23.667Z,26.85
2018-08-03T01:04:52.776Z,26.86
2018-08-03T01:07:21.842Z,26.87
2018-08-03T01:09:50.927Z,26.76
2018-08-03T01:12:19.995Z,26.76
2018-08-03T01:14:48.980Z,26.73
2018-08-03T01:17:18.051Z,26.73
2018-08-03T01:19:47.168Z,26.67
2018-08-03T01:22:16.239Z,26.61
2018-08-03T01:24:45.327Z,26.57
2018-08-03T01:27:14.455Z,26.58
2018-08-03T01:29:43.503Z,26.61
2018-08-03T01:32:12.588Z,26.65
2018-08-03T01:34:41.631Z,26.65
2018-08-03T01:37:10.707Z,26.71
2018-08-03T01:39:39.787Z,26.72
2018-08-03T01:42:08.779Z,26.71
2018-08-03T01:44:37.848Z,26.72
2018-08-03T01:47:06.915Z,26.72
2018-08-03T01:49:35.967Z,26.66
2018-08-03T01:52:05.031Z,26.62
2018-08-03T01:54:34.099Z,26.57
2018-08-03T01:57:03.199Z,26.63
2018-08-03T01:59:32.247Z,26.63
2018-08-03T02:02:01.357Z,26.64
2018-08-03T02:04:30.415Z,26.65
2018-08-03T02:06:59.471Z,26.66
2018-08-03T02:09:29.262Z,26.67
2018-08-03T02:11:58.295Z,26.70
2018-08-03T02:14:27.291Z,26.71
2018-08-03T02:16:56.352Z,26.71
2018-08-03T02:19:25.418Z,26.71
2018-08-03T02:21:54.811Z,26.67
2018-08-03T02:24:25.267Z,26.66
2018-08-03T02:26:54.507Z,26.65
2018-08-03T02:29:23.692Z,26.63
2018-08-03T02:31:52.801Z,26.59
2018-08-03T02:34:21.872Z,26.60
2018-08-03T02:36:50.940Z,26.60
2018-08-03T02:39:20.033Z,26.59
2018-08-03T02:41:49.028Z,26.56
2018-08-03T02:44:18.129Z,26.55
2018-08-03T02:46:47.244Z,26.55
2018-08-03T02:49:16.287Z,26.55
2018-08-03T02:51:45.353Z,26.54
2018-08-03T02:54:14.422Z,26.54
2018-08-03T02:56:43.461Z,26.52
2018-08-03T02:59:12.519Z,26.49
2018-08-03T03:01:41.572Z,26.49
2018-08-03T03:04:10.621Z,26.47
2018-08-03T03:06:39.675Z,26.49
2018-08-03T03:09:10.087Z,26.47
2018-08-03T03:11:39.057Z,26.46
2018-08-03T03:14:08.173Z,26.44
2018-08-03T03:16:37.223Z,26.46
2018-08-03T03:19:06.268Z,26.42
2018-08-03T03:21:35.324Z,26.42
2018-08-03T03:24:04.388Z,26.40
2018-08-03T03:26:33.431Z,26.40
2018-08-03T03:29:02.474Z,26.38
2018-08-03T03:31:31.529Z,26.39
2018-08-03T03:34:00.771Z,26.39
2018-08-03T03:36:29.815Z,26.35
2018-08-03T03:38:58.871Z,26.38
2018-08-03T03:41:27.931Z,26.33
2018-08-03T03:43:56.984Z,26.32
2018-08-03T03:46:26.052Z,26.29
2018-08-03T03:48:55.091Z,26.30
2018-08-03T03:51:24.225Z,26.29
2018-08-03T03:53:54.222Z,26.31
2018-08-03T03:56:23.273Z,26.29
2018-08-03T03:58:52.677Z,26.27
2018-08-03T04:01:21.728Z,26.25
2018-08-03T04:03:50.904Z,26.26
2018-08-03T04:06:20.143Z,26.26
2018-08-03T04:08:49.264Z,26.26
2018-08-03T04:11:18.350Z,26.27
2018-08-03T04:13:47.433Z,26.25
2018-08-03T04:16:16.531Z,26.25
2018-08-03T04:18:45.596Z,26.26
2018-08-03T04:21:14.707Z,26.24
2018-08-03T04:23:43.924Z,26.25
2018-08-03T04:26:13.019Z,26.24
2018-08-03T04:28:42.074Z,26.24
2018-08-03T04:31:11.184Z,26.24
2018-08-03T04:33:40.291Z,26.24
2018-08-03T04:36:09.332Z,26.23
2018-08-03T04:38:38.390Z,26.23
2018-08-03T04:41:07.585Z,26.23
2018-08-03T04:43:36.643Z,26.22
2018-08-03T04:46:05.758Z,26.22
2018-08-03T04:48:34.907Z,26.22
2018-08-03T04:51:04.108Z,26.24
2018-08-03T04:53:33.397Z,26.24
2018-08-03T04:56:02.468Z,26.20
2018-08-03T04:58:31.523Z,26.19
2018-08-03T05:01:00.596Z,26.19
2018-08-03T05:03:29.639Z,26.17
2018-08-03T05:05:58.647Z,26.19
2018-08-03T05:08:27.795Z,26.17
2018-08-03T05:10:56.945Z,26.18
2018-08-03T05:13:26.063Z,26.19
2018-08-03T05:15:55.232Z,26.18
2018-08-03T05:18:24.295Z,26.17
2018-08-03T05:20:53.377Z,26.15
2018-08-03T05:23:22.414Z,26.20
2018-08-03T05:25:51.505Z,26.19
2018-08-03T05:28:20.618Z,26.22
2018-08-03T05:30:50.171Z,26.25
2018-08-03T05:33:19.311Z,26.24
2018-08-03T05:35:48.587Z,26.24
2018-08-03T05:38:17.789Z,26.22
2018-08-03T05:40:47.183Z,26.27
2018-08-03T05:43:16.256Z,26.29
2018-08-03T05:45:45.431Z,26.25
2018-08-03T05:48:14.468Z,26.24
2018-08-03T05:50:43.520Z,26.23
2018-08-03T05:53:12.612Z,26.23
2018-08-03T05:55:41.675Z,26.23
2018-08-03T05:58:10.788Z,26.25
2018-08-03T06:00:39.855Z,26.24
2018-08-03T06:03:08.925Z,26.27
2018-08-03T06:05:38.007Z,26.30
2018-08-03T06:08:07.174Z,26.32
2018-08-03T06:10:36.464Z,26.35
2018-08-03T06:13:05.651Z,26.38
2018-08-03T06:15:34.747Z,26.41
2018-08-03T06:18:03.844Z,26.43
2018-08-03T06:20:32.935Z,26.44
2018-08-03T06:23:02.247Z,26.45
2018-08-03T06:25:31.915Z,26.47
2018-08-03T06:28:06.612Z,26.45
2018-08-03T06:30:41.118Z,26.48
2018-08-03T06:33:10.210Z,26.49
2018-08-03T06:35:39.333Z,26.52
2018-08-03T06:38:08.433Z,26.54
2018-08-03T06:40:37.723Z,26.55
2018-08-03T06:43:06.883Z,26.60
2018-08-03T06:45:35.954Z,26.65
2018-08-03T06:48:05.026Z,26.76
2018-08-03T06:50:34.172Z,26.85
2018-08-03T06:53:03.297Z,26.93
2018-08-03T06:55:32.406Z,26.98
2018-08-03T06:58:01.569Z,27.05
2018-08-03T07:00:30.688Z,27.12
2018-08-03T07:02:59.847Z,27.16
2018-08-03T07:05:29.157Z,27.24
2018-08-03T07:07:58.279Z,27.32
2018-08-03T07:10:27.373Z,27.42
2018-08-03T07:12:56.438Z,27.50
2018-08-03T07:15:25.482Z,27.56
2018-08-03T07:17:54.874Z,27.58
2018-08-03T07:20:24.307Z,27.59
2018-08-03T07:22:53.328Z,27.64
2018-08-03T07:25:22.442Z,27.72
2018-08-03T07:27:51.503Z,27.79
2018-08-03T07:30:20.550Z,27.82
2018-08-03T07:32:49.608Z,27.95
2018-08-03T07:35:19.162Z,28.10
2018-08-03T07:37:48.204Z,28.13
2018-08-03T07:40:17.312Z,28.20
2018-08-03T07:42:46.469Z,28.26
2018-08-03T07:45:15.796Z,28.32
2018-08-03T07:47:44.874Z,28.40
2018-08-03T07:50:13.962Z,28.44
2018-08-03T07:52:43.013Z,28.49
2018-08-03T07:55:12.069Z,28.50
2018-08-03T07:57:46.598Z,28.56
2018-08-03T08:00:15.714Z,28.57
2018-08-03T08:02:44.838Z,28.60
2018-08-03T08:05:13.874Z,28.72
2018-08-03T08:07:43.043Z,28.76
2018-08-03T08:10:12.143Z,28.70
2018-08-03T08:12:41.196Z,28.72
2018-08-03T08:15:10.284Z,28.81
2018-08-03T08:17:39.496Z,28.81
2018-08-03T08:20:08.566Z,28.87
2018-08-03T08:22:37.634Z,28.96
2018-08-03T08:25:06.824Z,29.01
2018-08-03T08:27:35.938Z,29.05
2018-08-03T08:30:05.682Z,29.15
2018-08-03T08:32:34.734Z,29.22
2018-08-03T08:35:03.781Z,29.29
2018-08-03T08:37:32.835Z,29.19
2018-08-03T08:40:01.891Z,29.17
2018-08-03T08:42:30.938Z,29.18
2018-08-03T08:45:00.064Z,29.18
2018-08-03T08:47:29.174Z,29.15
2018-08-03T08:49:58.258Z,29.16
2018-08-03T08:52:27.471Z,29.15
2018-08-03T08:54:56.640Z,29.19
2018-08-03T08:57:25.767Z,29.20
2018-08-03T08:59:54.854Z,29.22
2018-08-03T09:02:23.951Z,29.19
2018-08-03T09:04:53.030Z,29.20
2018-08-03T09:07:22.216Z,29.25
2018-08-03T09:09:51.451Z,29.29
2018-08-03T09:12:20.543Z,29.07
2018-08-03T09:14:49.793Z,29.06
2018-08-03T09:17:18.848Z,29.16
2018-08-03T09:19:47.887Z,29.13
2018-08-03T09:22:16.928Z,29.02
2018-08-03T09:24:47.043Z,29.08
2018-08-03T09:27:16.212Z,28.89
2018-08-03T09:29:45.290Z,28.96
2018-08-03T09:32:14.389Z,29.01
2018-08-03T09:34:43.483Z,29.07
2018-08-03T09:37:12.530Z,29.15
2018-08-03T09:39:41.651Z,29.15
2018-08-03T09:42:10.737Z,29.02
2018-08-03T09:44:39.786Z,29.14
2018-08-03T09:47:14.159Z,29.05
2018-08-03T09:49:48.696Z,29.11
2018-08-03T09:52:17.758Z,29.10
2018-08-03T09:54:46.807Z,29.12
2018-08-03T09:57:16.871Z,29.14
2018-08-03T09:59:45.925Z,29.13
2018-08-03T10:02:15.019Z,29.07
2018-08-03T10:04:44.084Z,29.12
2018-08-03T10:07:13.157Z,29.17
2018-08-03T10:09:42.203Z,29.19
2018-08-03T10:12:11.437Z,29.17
2018-08-03T10:14:40.395Z,29.16
2018-08-03T10:17:09.629Z,29.08
2018-08-03T10:19:38.682Z,29.07
2018-08-03T10:22:07.909Z,29.02
2018-08-03T10:24:37.108Z,28.97
2018-08-03T10:27:06.179Z,28.98
2018-08-03T10:29:35.478Z,28.92
2018-08-03T10:32:04.737Z,28.99
2018-08-03T10:34:33.779Z,29.07
2018-08-03T10:37:08.418Z,29.06
2018-08-03T10:39:43.099Z,29.03
2018-08-03T10:42:12.235Z,29.06
2018-08-03T10:44:41.338Z,29.09
2018-08-03T10:47:10.565Z,29.03
2018-08-03T10:49:39.791Z,29.07
2018-08-03T10:52:08.891Z,29.12
2018-08-03T10:54:38.048Z,29.09
2018-08-03T10:57:07.333Z,29.12
2018-08-03T10:59:36.395Z,29.11
2018-08-03T11:02:05.472Z,29.13
2018-08-03T11:04:34.587Z,29.14
2018-08-03T11:07:03.759Z,29.09
2018-08-03T11:09:32.836Z,29.02
2018-08-03T11:12:01.958Z,28.89
2018-08-03T11:14:31.008Z,28.85
2018-08-03T11:17:00.075Z,28.98
2018-08-03T11:19:29.147Z,29.07
2018-08-03T11:21:58.263Z,29.10
2018-08-03T11:24:27.424Z,29.16
2018-08-03T11:26:56.540Z,29.20
2018-08-03T11:29:25.798Z,29.21
2018-08-03T11:31:54.863Z,29.22
2018-08-03T11:34:23.955Z,29.24
2018-08-03T11:36:53.063Z,29.27
2018-08-03T11:39:22.195Z,29.28
2018-08-03T11:41:51.392Z,29.30
2018-08-03T11:44:20.468Z,29.29
2018-08-03T11:46:49.615Z,29.32
2018-08-03T11:49:18.650Z,29.32
2018-08-03T11:51:47.695Z,29.32
2018-08-03T11:54:16.745Z,29.30
2018-08-03T11:56:45.827Z,29.32
2018-08-03T11:59:15.136Z,29.34
2018-08-03T12:01:44.200Z,29.37
2018-08-03T12:04:13.439Z,29.37
2018-08-03T12:06:42.529Z,29.38
2018-08-03T12:09:11.599Z,29.40
2018-08-03T12:11:40.686Z,29.40
2018-08-03T12:14:09.676Z,29.43
2018-08-03T12:16:38.847Z,29.40
2018-08-03T12:19:07.918Z,29.42
2018-08-03T12:21:36.995Z,29.42
2018-08-03T12:24:06.116Z,29.42
2018-08-03T12:26:35.155Z,29.43
2018-08-03T12:29:04.207Z,29.47
2018-08-03T12:31:33.291Z,29.45
2018-08-03T12:34:02.506Z,29.48
2018-08-03T12:36:31.607Z,29.43
2018-08-03T12:39:00.732Z,29.46
2018-08-03T12:41:29.792Z,29.51
2018-08-03T12:43:58.847Z,29.54
2018-08-03T12:46:27.899Z,29.52
2018-08-03T12:48:57.051Z,29.53
2018-08-03T12:51:26.136Z,29.57
2018-08-03T12:53:55.250Z,29.58
2018-08-03T12:56:24.584Z,29.59
2018-08-03T12:58:53.760Z,29.57
2018-08-03T13:01:22.819Z,29.58
2018-08-03T13:03:51.956Z,29.60
2018-08-03T13:06:21.118Z,29.59
2018-08-03T13:08:50.753Z,29.61
2018-08-03T13:11:20.064Z,29.61
2018-08-03T13:13:49.023Z,29.59
2018-08-03T13:16:18.119Z,29.65
2018-08-03T13:18:47.209Z,29.62
2018-08-03T13:21:38.517Z,29.65
2018-08-03T13:24:07.659Z,29.65
2018-08-03T13:26:36.737Z,29.67
2018-08-03T13:29:11.382Z,29.69
2018-08-03T13:31:45.980Z,29.67
2018-08-03T13:34:15.068Z,29.70
2018-08-03T13:36:44.131Z,29.70
2018-08-03T13:39:13.282Z,29.65
2018-08-03T13:41:42.347Z,29.70
2018-08-03T13:44:11.419Z,29.72
2018-08-03T13:46:40.494Z,29.73
2018-08-03T13:49:09.544Z,29.74
2018-08-03T13:51:38.776Z,29.76
2018-08-03T13:54:07.807Z,29.77
2018-08-03T13:56:36.944Z,29.75
2018-08-03T13:59:06.196Z,29.77
2018-08-03T14:02:41.879Z,29.79
2018-08-03T14:05:11.407Z,29.76
2018-08-03T14:07:40.508Z,29.76
2018-08-03T14:10:10.391Z,29.75
2018-08-03T14:12:39.700Z,29.75
2018-08-03T14:15:08.839Z,29.76
2018-08-03T14:17:37.909Z,29.76
2018-08-03T14:20:07.486Z,29.78
2018-08-03T14:22:36.640Z,29.80
2018-08-03T14:25:05.600Z,29.82
2018-08-03T14:27:34.588Z,29.82
2018-08-03T14:30:03.692Z,29.82
2018-08-03T14:32:32.870Z,29.85
2018-08-03T14:35:01.997Z,29.82
2018-08-03T14:37:30.966Z,29.84
2018-08-03T14:39:59.967Z,29.82
2018-08-03T14:42:29.034Z,29.83
2018-08-03T14:44:58.010Z,29.84
2018-08-03T14:47:26.999Z,29.83
2018-08-03T14:49:56.042Z,29.85
2018-08-03T14:52:26.155Z,29.85
2018-08-03T14:54:55.312Z,29.87
2018-08-03T14:57:24.379Z,29.84
2018-08-03T14:59:54.177Z,29.84
2018-08-03T15:02:23.383Z,29.86
2018-08-03T15:04:52.348Z,29.85
2018-08-03T15:07:21.484Z,29.86
2018-08-03T15:09:50.435Z,29.86
2018-08-03T15:12:19.436Z,29.87
2018-08-03T15:14:48.432Z,29.89
2018-08-03T15:17:17.647Z,29.86
2018-08-03T15:19:46.690Z,29.87
2018-08-03T15:22:15.821Z,29.85
2018-08-03T15:24:44.994Z,29.85
2018-08-03T15:27:14.037Z,29.84
2018-08-03T15:29:43.129Z,29.82
2018-08-03T15:32:12.118Z,29.80
2018-08-03T15:34:41.112Z,29.76
2018-08-03T15:37:10.095Z,29.77
2018-08-03T15:39:39.100Z,29.77
2018-08-03T15:42:08.093Z,29.76
2018-08-03T15:44:37.135Z,29.68
2018-08-03T15:47:06.327Z,29.69
2018-08-03T15:49:35.363Z,29.69
2018-08-03T15:52:04.466Z,29.66
2018-08-03T15:54:33.587Z,29.65
2018-08-03T15:57:02.681Z,29.64
2018-08-03T15:59:31.742Z,29.65
2018-08-03T16:02:00.945Z,29.67
2018-08-03T16:04:30.173Z,29.66
2018-08-03T16:06:59.246Z,29.63
2018-08-03T16:09:28.328Z,29.65
2018-08-03T16:11:57.304Z,29.64
2018-08-03T16:14:26.431Z,29.60
2018-08-03T16:16:55.448Z,29.63
2018-08-03T16:19:24.630Z,29.65
2018-08-03T16:21:53.596Z,29.61
2018-08-03T16:24:22.694Z,29.55
2018-08-03T16:26:51.779Z,29.52
2018-08-03T16:29:20.900Z,29.55
2018-08-03T16:31:50.083Z,29.58
2018-08-03T16:34:19.080Z,29.57
2018-08-03T16:36:48.074Z,29.60
2018-08-03T16:39:17.099Z,29.60
2018-08-03T16:41:46.084Z,29.61
2018-08-03T16:44:15.076Z,29.63
2018-08-03T16:46:44.109Z,29.58
2018-08-03T16:49:13.245Z,29.62
2018-08-03T16:51:42.242Z,29.59
2018-08-03T16:54:11.330Z,29.61
2018-08-03T16:56:40.452Z,29.63
2018-08-03T16:59:09.462Z,29.66
2018-08-03T17:01:38.487Z,29.67
2018-08-03T17:04:07.498Z,29.69
2018-08-03T17:06:36.554Z,29.67
2018-08-03T17:09:08.245Z,29.69
2018-08-03T17:11:37.367Z,29.67
2018-08-03T17:14:06.335Z,29.70
2018-08-03T17:16:35.518Z,29.71
2018-08-03T17:19:04.808Z,29.65
2018-08-03T17:21:33.856Z,29.67
2018-08-03T17:24:02.951Z,29.70
2018-08-03T17:26:32.053Z,29.71
2018-08-03T17:29:01.092Z,29.73
2018-08-03T17:31:30.242Z,29.74
2018-08-03T17:33:59.248Z,29.74
2018-08-03T17:36:28.269Z,29.76
2018-08-03T17:38:57.518Z,29.78
2018-08-03T17:41:26.646Z,29.77
2018-08-03T17:43:55.850Z,29.69
2018-08-03T17:46:24.887Z,29.71
2018-08-03T17:48:54.171Z,29.73
2018-08-03T17:51:23.204Z,29.75
2018-08-03T17:53:52.258Z,29.76
2018-08-03T17:56:21.294Z,29.76
2018-08-03T17:58:50.420Z,29.76
2018-08-03T18:01:19.600Z,29.75
2018-08-03T18:03:48.750Z,29.79
2018-08-03T18:06:17.752Z,29.75
2018-08-03T18:08:46.870Z,29.74
2018-08-03T18:11:15.943Z,29.77
2018-08-03T18:13:44.980Z,29.72
2018-08-03T18:16:13.950Z,29.67
2018-08-03T18:18:43.065Z,29.63
2018-08-03T18:21:12.056Z,29.58
2018-08-03T18:23:41.153Z,29.52
2018-08-03T18:26:10.376Z,29.45
2018-08-03T18:28:39.492Z,29.44
2018-08-03T18:31:08.652Z,29.36
2018-08-03T18:33:37.650Z,29.25
2018-08-03T18:36:06.698Z,29.24
2018-08-03T18:38:35.720Z,29.23
2018-08-03T18:41:04.732Z,29.22
2018-08-03T18:43:33.772Z,29.19
2018-08-03T18:46:02.825Z,29.18
2018-08-03T18:48:32.011Z,29.21
2018-08-03T18:51:01.105Z,29.23
2018-08-03T18:53:30.286Z,29.23
2018-08-03T18:55:59.336Z,29.22
2018-08-03T18:58:28.442Z,29.16
2018-08-03T19:00:57.594Z,29.17
2018-08-03T19:03:26.583Z,29.14
2018-08-03T19:05:55.803Z,29.11
2018-08-03T19:08:24.898Z,29.11
2018-08-03T19:10:54.068Z,29.10
2018-08-03T19:13:23.071Z,29.10
2018-08-03T19:15:52.043Z,29.08
2018-08-03T19:18:21.076Z,29.08
2018-08-03T19:20:50.067Z,29.08
2018-08-03T19:23:19.043Z,29.07
2018-08-03T19:25:48.113Z,29.06
2018-08-03T19:28:17.153Z,29.05
2018-08-03T19:30:46.135Z,29.04
2018-08-03T19:33:15.141Z,29.03
2018-08-03T19:35:44.130Z,29.03
2018-08-03T19:38:13.187Z,29.01
2018-08-03T19:40:42.769Z,29.01
2018-08-03T19:43:11.790Z,29.00
2018-08-03T19:45:41.029Z,29.00
2018-08-03T19:48:10.042Z,29.00
2018-08-03T19:50:39.291Z,28.99
2018-08-03T19:53:08.310Z,29.00
2018-08-03T19:55:37.513Z,28.99
2018-08-03T19:58:06.611Z,28.99
2018-08-03T20:00:35.604Z,28.97
2018-08-03T20:03:04.876Z,28.96
2018-08-03T20:05:33.903Z,28.96
2018-08-03T20:08:02.963Z,28.95
2018-08-03T20:10:32.078Z,28.93
2018-08-03T20:13:01.160Z,28.94
2018-08-03T20:15:30.152Z,28.95
2018-08-03T20:17:59.206Z,28.94
2018-08-03T20:20:28.410Z,28.94
2018-08-03T20:22:57.428Z,28.93
2018-08-03T20:25:26.646Z,28.95
2018-08-03T20:27:55.652Z,28.93
2018-08-03T20:30:24.631Z,28.91
2018-08-03T20:32:53.615Z,28.92
2018-08-03T20:35:22.602Z,28.90
2018-08-03T20:37:51.606Z,28.92
2018-08-03T20:40:20.683Z,28.91
2018-08-03T20:42:49.876Z,28.91
2018-08-03T20:45:18.878Z,28.90
2018-08-03T20:47:49.634Z,28.92
2018-08-03T20:50:18.727Z,28.94
2018-08-03T20:52:47.917Z,28.96
2018-08-03T20:55:17.091Z,28.95
2018-08-03T20:57:46.209Z,28.94
2018-08-03T21:00:15.299Z,28.87
2018-08-03T21:02:44.351Z,28.77
2018-08-03T21:05:13.418Z,28.77
2018-08-03T21:07:42.525Z,28.80
2018-08-03T21:10:11.487Z,28.78
2018-08-03T21:12:40.583Z,28.79
2018-08-03T21:15:10.258Z,28.78
2018-08-03T21:17:39.295Z,28.70
2018-08-03T21:20:08.947Z,28.62
2018-08-03T21:22:38.003Z,28.58
2018-08-03T21:25:07.647Z,28.55
2018-08-03T21:27:36.719Z,28.47
2018-08-03T21:30:07.766Z,28.42
2018-08-03T21:32:37.043Z,28.40
2018-08-03T21:35:06.497Z,28.26
2018-08-03T21:37:35.984Z,28.34
2018-08-03T21:40:05.547Z,28.24
2018-08-03T21:42:34.943Z,28.17
2018-08-03T21:45:04.547Z,28.18
2018-08-03T21:47:33.539Z,28.10
2018-08-03T21:50:02.603Z,28.09
2018-08-03T21:52:32.010Z,28.06
2018-08-03T21:55:01.055Z,28.02
2018-08-03T21:57:30.182Z,28.03
2018-08-03T21:59:59.200Z,28.08
2018-08-03T22:02:28.229Z,28.04
2018-08-03T22:04:57.532Z,27.98
2018-08-03T22:07:26.615Z,28.00
2018-08-03T22:09:55.707Z,27.98
2018-08-03T22:12:24.791Z,28.02
2018-08-03T22:14:53.907Z,27.97
2018-08-03T22:17:22.967Z,27.91
2018-08-03T22:19:52.099Z,27.94
2018-08-03T22:22:21.094Z,27.94
2018-08-03T22:24:50.074Z,28.03
2018-08-03T22:27:19.078Z,28.00
2018-08-03T22:29:48.250Z,27.95
2018-08-03T22:32:17.284Z,27.96
2018-08-03T22:34:46.486Z,27.93
2018-08-03T22:37:15.557Z,27.92
2018-08-03T22:39:44.870Z,27.83
2018-08-03T22:42:14.958Z,27.69
2018-08-03T22:44:44.179Z,27.61
2018-08-03T22:47:13.167Z,27.57
2018-08-03T22:49:42.240Z,27.62
2018-08-03T22:52:11.586Z,27.63
2018-08-03T22:54:40.557Z,27.65
2018-08-03T22:57:09.554Z,27.63
2018-08-03T22:59:38.565Z,27.64
2018-08-03T23:02:08.781Z,27.52
2018-08-03T23:04:38.866Z,27.49
2018-08-03T23:07:08.228Z,27.49
2018-08-03T23:09:37.276Z,27.43
2018-08-03T23:12:06.826Z,27.47
2018-08-03T23:14:35.794Z,27.42
2018-08-03T23:17:04.786Z,27.44
2018-08-03T23:19:33.978Z,27.47
2018-08-03T23:22:02.986Z,27.49
2018-08-03T23:24:33.191Z,27.51
2018-08-03T23:27:02.167Z,27.51
2018-08-03T23:29:31.195Z,27.49
2018-08-03T23:32:00.266Z,27.52
2018-08-03T23:34:29.437Z,27.50
2018-08-03T23:36:58.431Z,27.53
2018-08-03T23:39:27.402Z,27.53
2018-08-03T23:41:56.388Z,27.54
2018-08-03T23:44:25.344Z,27.49
2018-08-03T23:46:54.339Z,27.49
2018-08-03T23:49:23.331Z,27.51
2018-08-03T23:51:52.331Z,27.56
2018-08-03T23:54:21.312Z,27.52
2018-08-03T23:56:50.422Z,27.48
2018-08-03T23:59:19.398Z,27.51
